KCCR/CCR METAR and TAF weather

Enter ICAO airport designator
Station Type Date Time Source
KCCR METAR 2020/09/27 00:53 UTC NOAA

KCCR 270053Z 27008KT 10SM HZ FU CLR 31/12 A2991 RMK AO2 SLP114 T03060117


Station Type Date Time Source
KCCR Decoded METAR 2020/09/27 00:53 UTC NOAA

CONCORD BUCHANAN FIELD, CA, United States (KCCR) 38-00N 122-03W 11M
Sep 26, 2020 - 08:53 PM EDT / 2020.09.27 0053 UTC
Wind: from the W (270 degrees) at 9 MPH (8 KT):0
Visibility: 10 mile(s):0
Sky conditions: clear
Weather: haze; smoke
Temperature: 87.1 F (30.6 C)
Dew Point: 53.1 F (11.7 C)
Relative Humidity: 31%
Pressure (altimeter): 29.91 in. Hg (1012 hPa)
ob: KCCR 270053Z 27008KT 10SM HZ FU CLR 31/12 A2991 RMK AO2 SLP114 T03060117
cycle: 1

Station Type Date Time Source
KCCR TAF 2016/02/08 18:39 UTC NOAA

TAF KCCR 081738Z 0818/0918 07006KT P6SM SKC
FM082000 06010KT P6SM SKC
FM090000 06005KT P6SM SKC
FM090600 VRB03KT P6SM SKC

Example: see airport list